Time;durP1;ratioP1;P1;durP2;ratioP2;P2;SDS_P1;SDS_P2;PMS_P1;PMS_P2;Temp;Humidity;BMP_temperature;BMP_pressure;BME280_temperature;BME280_humidity;BME280_pressure;Samples;Min_cycle;Max_cycle;Signal;HPM_P1;HPM_P2
2024/02/20 00:01:04;;;;;;;;;11.67;11.67;;;;;-147.14;100.00;58812.66;5014039;28;75693;-49
2024/02/20 00:03:29;;;;;;;;;7.00;7.00;;;;;-147.14;100.00;58812.66;5020646;28;72086;-50
2024/02/20 00:05:55;;;;;;;;;9.33;8.33;;;;;-147.14;100.00;58812.66;5019601;28;66574;-50
2024/02/20 00:08:20;;;;;;;;;9.67;9.00;;;;;-147.14;100.00;58812.66;5019898;28;55743;-49
2024/02/20 00:10:46;;;;;;;;;14.00;10.00;;;;;-147.14;100.00;58812.66;5017417;28;46175;-50
2024/02/20 00:13:12;;;;;;;;;15.00;11.00;;;;;-147.14;100.00;58812.66;5016901;28;45620;-51
2024/02/20 00:15:37;;;;;;;;;11.00;10.67;;;;;-147.14;100.00;58812.66;5021871;28;45326;-52
2024/02/20 00:18:03;;;;;;;;;12.67;11.00;;;;;-147.14;100.00;58812.66;4999784;28;45329;-52
2024/02/20 00:20:28;;;;;;;;;14.33;11.67;;;;;-147.14;100.00;58812.66;5016610;28;46150;-49
2024/02/20 00:22:54;;;;;;;;;10.00;9.33;;;;;-147.14;100.00;58812.66;5016085;28;70511;-49
2024/02/20 00:25:19;;;;;;;;;12.67;10.00;;;;;-147.14;100.00;58812.66;5012556;28;45516;-53
2024/02/20 00:27:45;;;;;;;;;11.00;10.67;;;;;-147.14;100.00;58812.66;5016693;28;45390;-49
2024/02/20 00:30:11;;;;;;;;;9.67;6.67;;;;;-147.14;100.00;58812.66;5016494;28;45511;-50
2024/02/20 00:32:36;;;;;;;;;17.67;14.67;;;;;-147.14;100.00;58812.66;5021849;28;45309;-50
2024/02/20 00:35:02;;;;;;;;;17.00;14.00;;;;;-147.14;100.00;58812.66;5020275;28;45530;-53
2024/02/20 00:37:27;;;;;;;;;16.00;11.33;;;;;-147.14;100.00;58812.66;5017196;28;45942;-50
2024/02/20 00:39:53;;;;;;;;;20.33;10.00;;;;;-147.14;100.00;58812.66;5015832;28;68353;-50
2024/02/20 00:42:19;;;;;;;;;15.00;13.67;;;;;-147.14;100.00;58812.66;5015996;28;45346;-53
2024/02/20 00:44:44;;;;;;;;;16.33;13.33;;;;;-147.14;100.00;58812.66;5015435;28;69000;-50
2024/02/20 00:47:09;;;;;;;;;16.67;14.00;;;;;-147.14;100.00;58812.66;5018686;28;45484;-52
2024/02/20 00:49:39;;;;;;;;;19.67;17.33;;;;;-147.14;100.00;58812.66;4998045;28;51948;-53
2024/02/20 00:52:04;;;;;;;;;15.67;14.67;;;;;-147.14;100.00;58812.66;5014682;28;69490;-53
2024/02/20 00:54:30;;;;;;;;;20.00;19.33;;;;;-147.14;100.00;58812.66;5008361;28;45265;-51
2024/02/20 00:56:55;;;;;;;;;22.00;18.00;;;;;-147.14;100.00;58812.66;5021483;28;45600;-50
2024/02/20 00:59:21;;;;;;;;;14.33;11.33;;;;;-147.14;100.00;58812.66;5002870;28;46901;-50
2024/02/20 01:01:47;;;;;;;;;18.00;14.33;;;;;-147.14;100.00;58812.66;5018961;28;45281;-53
2024/02/20 01:04:12;;;;;;;;;28.33;18.00;;;;;-147.14;100.00;58812.66;5002954;28;46292;-49
2024/02/20 01:06:38;;;;;;;;;17.67;16.33;;;;;-147.14;100.00;58812.66;5019159;28;66700;-53
2024/02/20 01:09:04;;;;;;;;;15.33;13.33;;;;;-147.14;100.00;58812.66;5016879;28;46336;-52
2024/02/20 01:11:30;;;;;;;;;20.33;14.33;;;;;-147.14;100.00;58812.66;5013226;28;72116;-49
2024/02/20 01:13:55;;;;;;;;;17.33;14.67;;;;;-147.14;100.00;58812.66;5016142;28;45474;-51
2024/02/20 01:16:21;;;;;;;;;17.67;15.67;;;;;-147.14;100.00;58812.66;5014165;28;45529;-51
2024/02/20 01:18:46;;;;;;;;;20.00;17.00;;;;;-147.14;100.00;58812.66;5020510;28;46075;-51
2024/02/20 01:21:11;;;;;;;;;18.00;16.00;;;;;-147.14;100.00;58812.66;5019647;28;72114;-49
2024/02/20 01:23:37;;;;;;;;;17.67;15.33;;;;;-147.14;100.00;58812.66;5017761;28;45307;-52
2024/02/20 01:26:03;;;;;;;;;24.33;17.33;;;;;-147.14;100.00;58812.66;5018566;28;45584;-50
2024/02/20 01:28:29;;;;;;;;;18.67;13.67;;;;;-147.14;100.00;58812.66;5003087;28;47028;-52
2024/02/20 01:30:54;;;;;;;;;20.00;13.00;;;;;-147.14;100.00;58812.66;5020697;28;45404;-50
2024/02/20 01:33:19;;;;;;;;;20.67;15.00;;;;;-147.14;100.00;58812.66;5011251;28;62022;-51
2024/02/20 01:35:45;;;;;;;;;18.67;16.67;;;;;-147.14;100.00;58812.66;5018099;28;68436;-53
2024/02/20 01:38:11;;;;;;;;;12.33;8.00;;;;;-147.14;100.00;58812.66;5019439;28;66855;-50
2024/02/20 01:40:37;;;;;;;;;19.00;19.00;;;;;-147.14;100.00;58812.66;5016381;28;45739;-52
2024/02/20 01:43:04;;;;;;;;;17.67;17.67;;;;;-147.14;100.00;58812.66;5018790;28;45260;-51
2024/02/20 01:45:31;;;;;;;;;17.00;17.00;;;;;-147.14;100.00;58812.66;4995770;28;45455;-53
2024/02/20 01:48:00;;;;;;;;;17.00;13.67;;;;;-147.14;100.00;58812.66;5017420;28;45641;-51
2024/02/20 01:50:26;;;;;;;;;19.67;15.33;;;;;-147.14;100.00;58812.66;4990962;28;45464;-50
2024/02/20 01:52:52;;;;;;;;;24.33;17.67;;;;;-147.14;100.00;58812.66;5000002;28;45300;-52
2024/02/20 01:55:19;;;;;;;;;21.00;14.33;;;;;-147.14;100.00;58812.66;4997186;28;49781;-52
2024/02/20 01:57:45;;;;;;;;;19.00;18.00;;;;;-147.14;100.00;58812.66;5012998;28;45555;-53
2024/02/20 02:00:11;;;;;;;;;16.33;15.33;;;;;-147.14;100.00;58812.66;5017968;28;73804;-51
2024/02/20 02:02:37;;;;;;;;;24.67;17.00;;;;;-147.14;100.00;58812.66;5018188;28;45454;-50
2024/02/20 02:05:03;;;;;;;;;20.00;17.33;;;;;-147.14;100.00;58812.66;5019556;28;45571;-50
2024/02/20 02:07:29;;;;;;;;;15.33;15.33;;;;;-147.14;100.00;58812.66;5016800;28;46227;-52
2024/02/20 02:09:55;;;;;;;;;17.33;14.33;;;;;-147.14;100.00;58812.66;4999859;28;45533;-52
2024/02/20 02:12:20;;;;;;;;;24.00;19.33;;;;;-147.14;100.00;58812.66;5017831;28;69268;-51
2024/02/20 02:14:45;;;;;;;;;19.00;17.67;;;;;-147.14;100.00;58812.66;5019273;28;59780;-52
2024/02/20 02:17:14;;;;;;;;;23.00;20.00;;;;;-147.14;100.00;58812.66;5012457;28;46135;-51
2024/02/20 02:19:39;;;;;;;;;26.33;18.67;;;;;-147.14;100.00;58812.66;4999973;28;45458;-52
2024/02/20 02:22:06;;;;;;;;;17.67;15.67;;;;;-147.14;100.00;58812.66;5015333;28;45600;-51
2024/02/20 02:24:34;;;;;;;;;23.67;20.67;;;;;-147.14;100.00;58812.66;5019531;28;45355;-52
2024/02/20 02:26:59;;;;;;;;;20.00;18.00;;;;;-147.14;100.00;58812.66;4991945;28;46572;-52
2024/02/20 02:29:24;;;;;;;;;20.67;18.33;;;;;-147.14;100.00;58812.66;5019144;28;45278;-50
2024/02/20 02:31:50;;;;;;;;;23.67;22.00;;;;;-147.14;100.00;58812.66;5014320;28;69189;-50
2024/02/20 02:34:16;;;;;;;;;33.00;24.67;;;;;-147.14;100.00;58812.66;5018074;28;69646;-50
2024/02/20 02:36:41;;;;;;;;;29.00;20.33;;;;;-147.14;100.00;58812.66;4993113;28;47258;-53
2024/02/20 02:39:08;;;;;;;;;22.33;19.67;;;;;-147.14;100.00;58812.66;5019073;28;45331;-51
2024/02/20 02:41:33;;;;;;;;;32.33;23.00;;;;;-147.14;100.00;58812.66;5013487;28;45388;-52
2024/02/20 02:43:59;;;;;;;;;25.33;19.00;;;;;-147.14;100.00;58812.66;5015027;28;45506;-53
2024/02/20 02:46:24;;;;;;;;;30.67;20.67;;;;;-147.14;100.00;58812.66;5016557;28;46493;-52
2024/02/20 02:48:50;;;;;;;;;23.33;23.00;;;;;-147.14;100.00;58812.66;5012707;28;72261;-52
2024/02/20 02:51:16;;;;;;;;;32.33;26.67;;;;;-147.14;100.00;58812.66;5002887;28;45377;-51
2024/02/20 02:53:41;;;;;;;;;27.67;22.33;;;;;-147.14;100.00;58812.66;4996382;28;45610;-52
2024/02/20 02:56:11;;;;;;;;;26.67;23.00;;;;;-147.14;100.00;58812.66;5017633;28;73655;-53
2024/02/20 02:58:37;;;;;;;;;24.67;22.33;;;;;-147.14;100.00;58812.66;4996281;28;46012;-51
2024/02/20 03:01:03;;;;;;;;;25.00;21.67;;;;;-147.14;100.00;58812.66;5010752;28;45506;-51
2024/02/20 03:03:29;;;;;;;;;40.33;21.00;;;;;-147.14;100.00;58812.66;5018980;28;45467;-51
2024/02/20 03:05:54;;;;;;;;;19.33;13.67;;;;;-147.14;100.00;58812.66;5014380;28;74157;-54
2024/02/20 03:08:19;;;;;;;;;34.00;24.67;;;;;-147.14;100.00;58812.66;5017324;28;73227;-54
2024/02/20 03:10:44;;;;;;;;;28.33;23.00;;;;;-147.14;100.00;58812.66;5013202;28;68857;-52
2024/02/20 03:13:10;;;;;;;;;25.33;18.33;;;;;-147.14;100.00;58812.66;5016899;28;70556;-52
2024/02/20 03:15:35;;;;;;;;;32.33;26.00;;;;;-147.14;100.00;58812.66;5017566;28;75942;-54
2024/02/20 03:18:00;;;;;;;;;33.33;26.67;;;;;-147.14;100.00;58812.66;5018199;28;45611;-50
2024/02/20 03:20:26;;;;;;;;;30.67;24.67;;;;;-147.14;100.00;58812.66;5018279;28;59320;-50
2024/02/20 03:22:52;;;;;;;;;29.00;27.00;;;;;-147.14;100.00;58812.66;4997241;28;45223;-50
2024/02/20 03:25:18;;;;;;;;;33.33;27.67;;;;;-147.14;100.00;58812.66;5000193;28;47103;-51
2024/02/20 03:27:43;;;;;;;;;33.00;27.33;;;;;-147.14;100.00;58812.66;5017738;28;71193;-53
2024/02/20 03:30:10;;;;;;;;;34.67;22.33;;;;;-147.14;100.00;58812.66;5014077;28;45474;-49
2024/02/20 03:32:35;;;;;;;;;27.67;21.33;;;;;-147.14;100.00;58812.66;5018845;28;45291;-49
2024/02/20 03:35:02;;;;;;;;;32.67;24.33;;;;;-147.14;100.00;58812.66;5017061;28;45548;-49
2024/02/20 03:37:27;;;;;;;;;33.33;26.67;;;;;-147.14;100.00;58812.66;5018727;28;45363;-49
2024/02/20 03:39:53;;;;;;;;;22.00;22.00;;;;;-147.14;100.00;58812.66;5013477;28;45340;-49
2024/02/20 03:42:18;;;;;;;;;28.67;25.67;;;;;-147.14;100.00;58812.66;5017386;28;67707;-52
2024/02/20 03:44:43;;;;;;;;;28.67;25.00;;;;;-147.14;100.00;58812.66;5017220;28;74344;-51
2024/02/20 03:47:09;;;;;;;;;26.33;24.00;;;;;-147.14;100.00;58812.66;5014083;28;72389;-52
2024/02/20 03:49:34;;;;;;;;;24.67;21.00;;;;;-147.14;100.00;58812.66;5003021;28;45308;-48
2024/02/20 03:52:00;;;;;;;;;26.67;25.67;;;;;-147.14;100.00;58812.66;5014025;28;45478;-50
2024/02/20 03:54:25;;;;;;;;;34.00;28.00;;;;;-147.14;100.00;58812.66;5014348;28;46318;-52
2024/02/20 03:56:50;;;;;;;;;32.00;24.00;;;;;-147.14;100.00;58812.66;5001680;28;67782;-51
2024/02/20 03:59:16;;;;;;;;;31.33;26.00;;;;;-147.14;100.00;58812.66;5008645;28;64925;-52
2024/02/20 04:01:42;;;;;;;;;32.33;26.67;;;;;-147.14;100.00;58812.66;5017391;28;45351;-50
2024/02/20 04:04:07;;;;;;;;;26.67;23.00;;;;;-147.14;100.00;58812.66;5017136;28;70284;-52
2024/02/20 04:06:33;;;;;;;;;28.00;24.00;;;;;-147.14;100.00;58812.66;5018553;28;45388;-54
2024/02/20 04:09:03;;;;;;;;;29.00;23.67;;;;;-147.14;100.00;58812.66;5014174;28;62869;-53
2024/02/20 04:11:30;;;;;;;;;27.67;27.33;;;;;-147.14;100.00;58812.66;5018152;28;45769;-49
2024/02/20 04:13:55;;;;;;;;;38.00;28.00;;;;;-147.14;100.00;58812.66;5014716;28;45435;-52
2024/02/20 04:16:20;;;;;;;;;35.00;25.00;;;;;-147.14;100.00;58812.66;5015394;28;72920;-51
2024/02/20 04:18:46;;;;;;;;;28.67;25.00;;;;;-147.14;100.00;58812.66;5012723;28;68332;-53
2024/02/20 04:21:11;;;;;;;;;36.33;26.00;;;;;-147.14;100.00;58812.66;5012896;28;45462;-51
2024/02/20 04:23:36;;;;;;;;;31.00;27.00;;;;;-147.14;100.00;58812.66;5013725;28;46140;-50
2024/02/20 04:26:02;;;;;;;;;35.33;28.33;;;;;-147.14;100.00;58812.66;5016071;28;45315;-53
2024/02/20 04:28:32;;;;;;;;;44.33;31.67;;;;;-147.14;100.00;58812.66;4998046;28;68612;-50
2024/02/20 04:30:58;;;;;;;;;35.67;26.33;;;;;-147.14;100.00;58812.66;5011835;28;45466;-49
2024/02/20 04:33:23;;;;;;;;;28.00;25.33;;;;;-147.14;100.00;58812.66;5016526;28;75837;-51
2024/02/20 04:35:48;;;;;;;;;34.67;25.33;;;;;-147.14;100.00;58812.66;5013071;28;66198;-51
2024/02/20 04:38:14;;;;;;;;;28.33;25.00;;;;;-147.14;100.00;58812.66;5007336;28;69354;-52
2024/02/20 04:40:39;;;;;;;;;28.00;22.33;;;;;-147.14;100.00;58812.66;5017063;28;45300;-52
2024/02/20 04:43:06;;;;;;;;;30.33;24.67;;;;;-147.14;100.00;58812.66;5011423;28;60813;-52
2024/02/20 04:45:31;;;;;;;;;32.00;25.00;;;;;-147.14;100.00;58812.66;5016748;28;45312;-53
2024/02/20 04:47:56;;;;;;;;;32.33;26.00;;;;;-147.14;100.00;58812.66;5012938;28;67625;-50
2024/02/20 04:50:22;;;;;;;;;27.33;26.00;;;;;-147.14;100.00;58812.66;4991271;28;45310;-53
2024/02/20 04:52:47;;;;;;;;;36.33;29.33;;;;;-147.14;100.00;58812.66;5011424;28;47143;-52
2024/02/20 04:55:12;;;;;;;;;35.67;26.67;;;;;-147.14;100.00;58812.66;5013491;28;45417;-51
2024/02/20 04:57:38;;;;;;;;;28.67;24.67;;;;;-147.14;100.00;58812.66;5014583;28;57830;-51
2024/02/20 05:00:09;;;;;;;;;24.67;22.33;;;;;-147.14;100.00;58812.66;5017074;28;57791;-51
2024/02/20 05:02:37;;;;;;;;;32.67;27.00;;;;;-147.14;100.00;58812.66;5015012;28;46327;-50
2024/02/20 05:05:02;;;;;;;;;38.00;32.00;;;;;-147.14;100.00;58812.66;5020735;28;45451;-50
2024/02/20 05:07:28;;;;;;;;;29.00;27.33;;;;;-147.14;100.00;58812.66;5013947;28;45273;-50
2024/02/20 05:09:53;;;;;;;;;32.67;23.33;;;;;-147.14;100.00;58812.66;5020782;28;45572;-53
2024/02/20 05:12:19;;;;;;;;;34.33;27.33;;;;;-147.14;100.00;58812.66;5018473;28;73823;-50
2024/02/20 05:14:48;;;;;;;;;42.33;30.33;;;;;-147.14;100.00;58812.66;5016208;28;45594;-53
2024/02/20 05:17:13;;;;;;;;;32.33;22.33;;;;;-147.14;100.00;58812.66;5014278;28;45513;-49
2024/02/20 05:19:39;;;;;;;;;28.00;24.67;;;;;-147.14;100.00;58812.66;5019936;28;45324;-53
2024/02/20 05:22:04;;;;;;;;;32.67;23.33;;;;;-147.14;100.00;58812.66;5017493;28;74830;-51
2024/02/20 05:24:29;;;;;;;;;23.00;20.00;;;;;-147.14;100.00;58812.66;5014170;28;69856;-53
2024/02/20 05:26:55;;;;;;;;;22.67;19.67;;;;;-147.14;100.00;58812.66;5014478;28;45309;-51
2024/02/20 05:29:21;;;;;;;;;20.33;17.00;;;;;-147.14;100.00;58812.66;5018545;28;70200;-52
2024/02/20 05:31:47;;;;;;;;;23.33;18.00;;;;;-147.14;100.00;58812.66;5020100;28;46392;-52
2024/02/20 05:34:12;;;;;;;;;18.67;17.00;;;;;-147.14;100.00;58812.66;5014711;28;46799;-51
2024/02/20 05:36:37;;;;;;;;;20.67;17.00;;;;;-147.14;100.00;58812.66;5014597;28;45221;-50
2024/02/20 05:39:05;;;;;;;;;20.00;18.00;;;;;-147.14;100.00;58812.66;5020394;28;45275;-51
2024/02/20 05:41:31;;;;;;;;;30.00;22.00;;;;;-147.14;100.00;58812.66;5013869;28;45415;-52
2024/02/20 05:43:57;;;;;;;;;19.33;17.00;;;;;-147.14;100.00;58812.66;5019805;28;45452;-52
2024/02/20 05:46:30;;;;;;;;;26.67;22.00;;;;;-147.14;100.00;58812.66;5018034;28;45387;-52
2024/02/20 05:48:56;;;;;;;;;25.00;20.33;;;;;-147.14;100.00;58812.66;5015662;28;45499;-50
2024/02/20 05:51:23;;;;;;;;;24.00;23.67;;;;;-147.14;100.00;58812.66;5001781;28;46383;-49
2024/02/20 05:53:49;;;;;;;;;24.00;21.67;;;;;-147.14;100.00;58812.66;4996645;28;45543;-51
2024/02/20 05:56:15;;;;;;;;;29.33;22.00;;;;;-147.14;100.00;58812.66;5019372;28;45490;-50
2024/02/20 05:58:41;;;;;;;;;26.33;19.67;;;;;-147.14;100.00;58812.66;5015236;28;45222;-51
2024/02/20 06:01:08;;;;;;;;;25.67;22.67;;;;;-147.14;100.00;58812.66;4990787;28;45481;-52
2024/02/20 06:03:36;;;;;;;;;27.67;24.00;;;;;-147.14;100.00;58812.66;5020193;28;45364;-52
2024/02/20 06:06:05;;;;;;;;;27.00;25.33;;;;;-147.14;100.00;58812.66;5013671;28;45354;-50
2024/02/20 06:08:31;;;;;;;;;28.33;18.67;;;;;-147.14;100.00;58812.66;5002703;28;45422;-49
2024/02/20 06:10:56;;;;;;;;;20.00;18.00;;;;;-147.14;100.00;58812.66;5019031;28;65181;-51
2024/02/20 06:13:22;;;;;;;;;21.33;17.67;;;;;-147.14;100.00;58812.66;5015093;28;45459;-50
2024/02/20 06:15:47;;;;;;;;;17.00;15.00;;;;;-147.14;100.00;58812.66;5014295;28;68308;-49
2024/02/20 06:18:12;;;;;;;;;18.00;17.00;;;;;-147.14;100.00;58812.66;5001143;28;63670;-53
2024/02/20 06:20:38;;;;;;;;;19.33;17.67;;;;;-147.14;100.00;58812.66;4980365;28;68422;-50
2024/02/20 06:23:03;;;;;;;;;20.67;16.67;;;;;-147.14;100.00;58812.66;5017383;28;68587;-50
2024/02/20 06:25:28;;;;;;;;;20.33;17.67;;;;;-147.14;100.00;58812.66;5010294;28;45369;-52
2024/02/20 06:27:55;;;;;;;;;25.33;18.67;;;;;-147.14;100.00;58812.66;5019888;28;45552;-51
2024/02/20 06:30:22;;;;;;;;;22.00;18.33;;;;;-147.14;100.00;58812.66;5001484;28;46850;-52
2024/02/20 06:32:47;;;;;;;;;20.00;16.67;;;;;-147.14;100.00;58812.66;5019528;28;45494;-50
2024/02/20 06:35:13;;;;;;;;;21.67;18.00;;;;;-147.14;100.00;58812.66;5014611;28;45510;-53
2024/02/20 06:37:39;;;;;;;;;24.00;19.00;;;;;-147.14;100.00;58812.66;4994401;28;45290;-53
2024/02/20 06:40:05;;;;;;;;;16.00;14.67;;;;;-147.14;100.00;58812.66;5013381;28;45436;-50
2024/02/20 06:42:30;;;;;;;;;26.67;23.00;;;;;-147.14;100.00;58812.66;5014070;28;45230;-54
2024/02/20 06:44:56;;;;;;;;;27.67;21.00;;;;;-147.14;100.00;58812.66;5013818;28;64066;-50
2024/02/20 06:47:22;;;;;;;;;17.33;15.67;;;;;-147.14;100.00;58812.66;5015799;28;46021;-49
2024/02/20 06:49:47;;;;;;;;;24.33;21.67;;;;;-147.14;100.00;58812.66;5017316;28;59387;-51
2024/02/20 06:52:12;;;;;;;;;18.00;17.67;;;;;-147.14;100.00;58812.66;5014302;28;72096;-51
2024/02/20 06:54:38;;;;;;;;;27.33;19.00;;;;;-147.14;100.00;58812.66;5011183;28;68438;-52
2024/02/20 06:57:03;;;;;;;;;22.00;19.00;;;;;-147.14;100.00;58812.66;5012858;28;45330;-51
2024/02/20 06:59:29;;;;;;;;;26.00;19.00;;;;;-147.14;100.00;58812.66;5015665;28;45436;-51
2024/02/20 07:01:54;;;;;;;;;21.33;17.00;;;;;-147.14;100.00;58812.66;5019049;28;45472;-53
2024/02/20 07:04:20;;;;;;;;;19.67;18.00;;;;;-147.14;100.00;58812.66;5009832;28;45306;-53
2024/02/20 07:06:45;;;;;;;;;21.33;21.00;;;;;-147.14;100.00;58812.66;5016001;28;45530;-52
2024/02/20 07:09:11;;;;;;;;;23.33;21.00;;;;;-147.14;100.00;58812.66;4984912;28;75388;-52
2024/02/20 07:11:36;;;;;;;;;20.67;18.00;;;;;-147.14;100.00;58812.66;4981144;28;45537;-52
2024/02/20 07:14:01;;;;;;;;;22.67;17.00;;;;;-147.14;100.00;58812.66;5013499;28;68283;-51
2024/02/20 07:16:27;;;;;;;;;21.00;18.67;;;;;-147.14;100.00;58812.66;5018317;28;46281;-53
2024/02/20 07:18:52;;;;;;;;;22.33;20.67;;;;;-147.14;100.00;58812.66;5001077;28;47226;-52
2024/02/20 07:21:18;;;;;;;;;22.00;18.67;;;;;-147.14;100.00;58812.66;5017644;28;71228;-49
2024/02/20 07:23:43;;;;;;;;;24.67;22.67;;;;;-147.14;100.00;58812.66;5009600;28;66352;-53
2024/02/20 07:26:08;;;;;;;;;27.00;21.00;;;;;-147.14;100.00;58812.66;5012090;28;70287;-51
2024/02/20 07:28:36;;;;;;;;;29.00;22.00;;;;;-147.14;100.00;58812.66;5017820;28;76385;-50
2024/02/20 07:31:02;;;;;;;;;24.67;18.00;;;;;-147.14;100.00;58812.66;5018533;28;45266;-50
2024/02/20 07:33:27;;;;;;;;;17.33;15.00;;;;;-147.14;100.00;58812.66;5008913;28;45289;-49
2024/02/20 07:35:53;;;;;;;;;25.67;22.00;;;;;-147.14;100.00;58812.66;5018101;28;45235;-53
2024/02/20 07:38:18;;;;;;;;;19.33;17.33;;;;;-147.14;100.00;58812.66;5006934;28;74632;-50
2024/02/20 07:40:44;;;;;;;;;22.67;15.33;;;;;-147.14;100.00;58812.66;5016657;28;68264;-52
2024/02/20 07:43:10;;;;;;;;;29.00;20.00;;;;;-147.14;100.00;58812.66;5018154;28;45443;-53
2024/02/20 07:45:35;;;;;;;;;20.67;16.33;;;;;-147.14;100.00;58812.66;4999927;28;70217;-50
2024/02/20 07:48:01;;;;;;;;;27.33;19.00;;;;;-147.14;100.00;58812.66;5009983;28;73893;-54
2024/02/20 07:50:26;;;;;;;;;22.67;19.00;;;;;-147.14;100.00;58812.66;5011137;28;45369;-53
2024/02/20 07:52:51;;;;;;;;;18.67;18.67;;;;;-147.14;100.00;58812.66;5007295;28;60619;-50
2024/02/20 07:55:17;;;;;;;;;22.00;19.00;;;;;-147.14;100.00;58812.66;5010135;28;67393;-52
2024/02/20 07:57:43;;;;;;;;;20.00;17.00;;;;;-147.14;100.00;58812.66;4997949;28;47415;-50
2024/02/20 08:00:11;;;;;;;;;16.33;12.33;;;;;-147.14;100.00;58812.66;5011739;28;45392;-52
2024/02/20 08:02:37;;;;;;;;;18.33;17.33;;;;;-147.14;100.00;58812.66;5007583;28;45977;-50
2024/02/20 08:05:04;;;;;;;;;23.00;20.00;;;;;-147.14;100.00;58812.66;5016948;28;45289;-49
2024/02/20 08:07:29;;;;;;;;;19.00;15.33;;;;;-147.14;100.00;58812.66;4999433;28;47399;-52
2024/02/20 08:09:55;;;;;;;;;17.00;12.33;;;;;-147.14;100.00;58812.66;5013636;28;45325;-52
2024/02/20 08:12:24;;;;;;;;;16.33;13.33;;;;;-147.14;100.00;58812.66;5009493;28;45413;-50
2024/02/20 08:14:49;;;;;;;;;14.67;14.33;;;;;-147.14;100.00;58812.66;4999800;28;45371;-50
2024/02/20 08:17:15;;;;;;;;;14.00;9.67;;;;;-147.14;100.00;58812.66;4988440;28;48120;-51
2024/02/20 08:19:41;;;;;;;;;15.00;14.00;;;;;-147.14;100.00;58812.66;5017963;28;57480;-53
2024/02/20 08:22:07;;;;;;;;;14.67;11.67;;;;;-147.14;100.00;58812.66;5019831;28;45294;-53
2024/02/20 08:24:32;;;;;;;;;19.33;17.67;;;;;-147.14;100.00;58812.66;5020110;28;64773;-50
2024/02/20 08:27:01;;;;;;;;;22.33;16.00;;;;;-147.14;100.00;58812.66;5020257;28;69174;-50
2024/02/20 08:29:28;;;;;;;;;19.00;17.33;;;;;-147.14;100.00;58812.66;5001720;28;45364;-50
2024/02/20 08:31:53;;;;;;;;;22.00;17.67;;;;;-147.14;100.00;58812.66;5006574;28;45580;-49
2024/02/20 08:34:18;;;;;;;;;19.33;17.67;;;;;-147.14;100.00;58812.66;5020098;28;45824;-53
2024/02/20 08:36:44;;;;;;;;;21.33;20.00;;;;;-147.14;100.00;58812.66;4994280;28;67215;-49
2024/02/20 08:39:09;;;;;;;;;17.00;15.00;;;;;-147.14;100.00;58812.66;5018568;28;72237;-53
2024/02/20 08:41:34;;;;;;;;;22.00;17.67;;;;;-147.14;100.00;58812.66;5018060;28;63087;-50
2024/02/20 08:44:00;;;;;;;;;22.33;18.67;;;;;-147.14;100.00;58812.66;5003619;28;45452;-53
2024/02/20 08:46:25;;;;;;;;;23.33;19.33;;;;;-147.14;100.00;58812.66;4998852;28;48366;-53
2024/02/20 08:48:51;;;;;;;;;20.33;17.67;;;;;-147.14;100.00;58812.66;5015894;28;45234;-53
2024/02/20 08:51:17;;;;;;;;;20.00;19.00;;;;;-147.14;100.00;58812.66;5021175;28;45421;-52
2024/02/20 08:53:43;;;;;;;;;22.00;22.00;;;;;-147.14;100.00;58812.66;5019196;28;45589;-52
2024/02/20 08:56:09;;;;;;;;;24.67;17.00;;;;;-147.14;100.00;58812.66;4983982;28;46209;-52
2024/02/20 08:58:34;;;;;;;;;18.00;15.33;;;;;-147.14;100.00;58812.66;5010003;28;45534;-52
2024/02/20 09:00:59;;;;;;;;;18.33;17.33;;;;;-147.14;100.00;58812.66;5013425;28;45289;-51
2024/02/20 09:03:28;;;;;;;;;18.67;15.67;;;;;-147.14;100.00;58812.66;5015209;28;45439;-51
2024/02/20 09:05:54;;;;;;;;;18.33;18.33;;;;;-147.14;100.00;58812.66;5015333;28;47288;-52
2024/02/20 09:08:19;;;;;;;;;20.00;15.33;;;;;-147.14;100.00;58812.66;4998416;28;45340;-53
2024/02/20 09:10:44;;;;;;;;;21.00;16.00;;;;;-147.14;100.00;58812.66;4989646;28;62288;-52
2024/02/20 09:13:10;;;;;;;;;18.67;14.00;;;;;-147.14;100.00;58812.66;5014700;28;69409;-51
2024/02/20 09:15:35;;;;;;;;;24.00;15.67;;;;;-147.14;100.00;58812.66;5016561;28;69615;-52
2024/02/20 09:18:01;;;;;;;;;17.00;16.67;;;;;-147.14;100.00;58812.66;5007232;28;45455;-53
2024/02/20 09:20:27;;;;;;;;;17.33;16.00;;;;;-147.14;100.00;58812.66;4985299;28;45551;-51
2024/02/20 09:22:52;;;;;;;;;19.33;15.33;;;;;-147.14;100.00;58812.66;5017225;28;58325;-51
2024/02/20 09:25:18;;;;;;;;;15.00;14.00;;;;;-147.14;100.00;58812.66;5018434;28;46326;-51
2024/02/20 09:27:43;;;;;;;;;14.00;13.33;;;;;-147.14;100.00;58812.66;5018281;28;71903;-52
2024/02/20 09:30:10;;;;;;;;;16.00;15.33;;;;;-147.14;100.00;58812.66;5018663;28;45324;-51
2024/02/20 09:32:37;;;;;;;;;20.67;17.00;;;;;-147.14;100.00;58812.66;5017479;28;45495;-51
2024/02/20 09:35:03;;;;;;;;;16.67;15.67;;;;;-147.14;100.00;58812.66;5016380;28;45815;-51
2024/02/20 09:37:28;;;;;;;;;17.33;15.33;;;;;-147.14;100.00;58812.66;4987372;28;45422;-49
2024/02/20 09:39:54;;;;;;;;;16.67;12.33;;;;;-147.14;100.00;58812.66;4999700;28;55944;-50
2024/02/20 09:42:27;;;;;;;;;18.00;17.33;;;;;-147.14;100.00;58812.66;5010059;28;70465;-50
2024/02/20 09:44:57;;;;;;;;;19.00;18.00;;;;;-147.14;100.00;58812.66;5005001;28;46483;-50
2024/02/20 09:47:22;;;;;;;;;16.33;14.00;;;;;-147.14;100.00;58812.66;5007884;28;45289;-50
2024/02/20 09:49:49;;;;;;;;;16.67;15.00;;;;;-147.14;100.00;58812.66;5006221;28;45433;-51
2024/02/20 09:52:15;;;;;;;;;18.67;17.67;;;;;-147.14;100.00;58812.66;5007838;28;45411;-50
2024/02/20 09:54:43;;;;;;;;;20.67;17.33;;;;;-147.14;100.00;58812.66;4998490;28;70417;-52
2024/02/20 09:57:08;;;;;;;;;20.33;16.67;;;;;-147.14;100.00;58812.66;5001994;28;45649;-50
2024/02/20 09:59:34;;;;;;;;;25.33;16.33;;;;;-147.14;100.00;58812.66;4997018;28;45672;-51
2024/02/20 10:02:00;;;;;;;;;8.33;8.33;;;;;-147.14;100.00;58812.66;5019516;28;70896;-50
2024/02/20 10:04:29;;;;;;;;;16.00;13.67;;;;;-147.14;100.00;58812.66;5017759;28;45429;-51
2024/02/20 10:06:54;;;;;;;;;19.00;16.00;;;;;-147.14;100.00;58812.66;5020324;28;45234;-52
2024/02/20 10:09:21;;;;;;;;;18.33;15.00;;;;;-147.14;100.00;58812.66;5014016;28;45939;-54
2024/02/20 10:11:46;;;;;;;;;11.33;11.00;;;;;-147.14;100.00;58812.66;5007728;28;45296;-50
2024/02/20 10:14:12;;;;;;;;;23.33;15.00;;;;;-147.14;100.00;58812.66;5012640;28;73372;-53
2024/02/20 10:16:37;;;;;;;;;15.00;12.00;;;;;-147.14;100.00;58812.66;5019393;28;71972;-53
2024/02/20 10:19:07;;;;;;;;;17.33;16.00;;;;;-147.14;100.00;58812.66;4997328;28;58870;-52
2024/02/20 10:21:33;;;;;;;;;19.00;17.00;;;;;-147.14;100.00;58812.66;5019359;28;45384;-52
2024/02/20 10:24:05;;;;;;;;;17.00;12.67;;;;;-147.14;100.00;58812.66;5019495;28;53037;-50
2024/02/20 10:26:34;;;;;;;;;23.67;20.00;;;;;-147.14;100.00;58812.66;5019930;28;45516;-51
2024/02/20 10:29:00;;;;;;;;;20.33;17.00;;;;;-147.14;100.00;58812.66;4996350;28;45305;-51
2024/02/20 10:31:25;;;;;;;;;24.33;18.67;;;;;-147.14;100.00;58812.66;5004166;28;45503;-49
2024/02/20 10:33:52;;;;;;;;;27.33;25.33;;;;;-147.14;100.00;58812.66;5010435;28;45896;-50
2024/02/20 10:36:24;;;;;;;;;21.00;19.67;;;;;-147.14;100.00;58812.66;5003076;28;45714;-53
2024/02/20 10:38:50;;;;;;;;;19.33;12.00;;;;;-147.14;100.00;58812.66;5011517;28;45374;-52
2024/02/20 10:41:16;;;;;;;;;11.33;11.33;;;;;-147.14;100.00;58812.66;5015805;28;45582;-51
2024/02/20 10:43:48;;;;;;;;;21.00;18.00;;;;;-147.14;100.00;58812.66;5010658;28;46539;-53
2024/02/20 10:46:14;;;;;;;;;23.00;21.00;;;;;-147.14;100.00;58812.66;5014040;28;45278;-51
2024/02/20 10:48:39;;;;;;;;;23.00;15.00;;;;;-147.14;100.00;58812.66;5001982;28;45205;-52